createdAt,value
2022-12-31T00:02:58.387Z,94809.81
2022-12-31T00:06:03.175Z,94818.22
2022-12-31T00:09:08.445Z,94810.25
2022-12-31T00:12:11.653Z,94813.34
2022-12-31T00:15:14.763Z,94821.91
2022-12-31T00:18:18.358Z,94817.81
2022-12-31T00:21:22.400Z,94826.16
2022-12-31T00:24:26.272Z,94830.63
2022-12-31T00:27:33.557Z,94834.06
2022-12-31T00:30:36.902Z,94830.81
2022-12-31T00:33:40.719Z,94829.56
2022-12-31T00:36:46.778Z,94828.88
2022-12-31T00:39:49.680Z,94832.41
2022-12-31T00:42:53.952Z,94841.63
2022-12-31T00:45:57.285Z,94841.34
2022-12-31T00:49:01.106Z,94833.97
2022-12-31T00:52:05.284Z,94829.25
2022-12-31T00:55:09.653Z,94832.34
2022-12-31T00:58:13.457Z,94832.69
2022-12-31T01:01:27.265Z,94843.34
2022-12-31T01:04:31.165Z,94840.00
2022-12-31T01:07:53.959Z,94842.31
2022-12-31T01:11:16.235Z,94839.50
2022-12-31T01:14:21.210Z,94841.44
2022-12-31T01:17:43.365Z,94842.41
2022-12-31T01:21:04.715Z,94834.53
2022-12-31T01:24:09.037Z,94850.09
2022-12-31T01:27:12.646Z,94852.47
2022-12-31T01:30:33.940Z,94851.19
2022-12-31T01:33:37.294Z,94853.66
2022-12-31T01:36:40.243Z,94853.78
2022-12-31T01:39:43.904Z,94854.06
2022-12-31T01:43:05.189Z,94849.47
2022-12-31T01:46:10.658Z,94846.78
2022-12-31T01:53:05.739Z,94854.47
2022-12-31T01:56:27.486Z,94861.28
2022-12-31T01:59:32.421Z,94873.50
2022-12-31T02:02:35.717Z,94869.53
2022-12-31T02:06:20.321Z,94872.25
2022-12-31T02:09:24.238Z,94874.25
2022-12-31T02:16:35.018Z,94873.81
2022-12-31T02:20:11.910Z,94883.53
2022-12-31T02:23:44.190Z,94878.03
2022-12-31T02:27:01.337Z,94886.97
2022-12-31T02:30:10.526Z,94891.63
2022-12-31T02:33:31.851Z,94886.88
2022-12-31T02:36:56.574Z,94885.41
2022-12-31T02:40:01.121Z,94877.81
2022-12-31T02:43:05.089Z,94876.75
2022-12-31T02:46:22.658Z,94868.75
2022-12-31T02:49:32.037Z,94877.63
2022-12-31T02:52:44.850Z,94871.13
2022-12-31T02:56:06.965Z,94867.78
2022-12-31T02:59:38.787Z,94870.38
2022-12-31T03:02:44.794Z,94865.56
2022-12-31T03:05:50.225Z,94863.13
2022-12-31T03:09:11.874Z,94869.16
2022-12-31T03:12:34.595Z,94870.75
2022-12-31T03:15:39.489Z,94866.00
2022-12-31T03:19:06.015Z,94872.34
2022-12-31T03:22:28.000Z,94865.41
2022-12-31T03:25:35.264Z,94865.34
2022-12-31T03:28:57.573Z,94865.75
2022-12-31T03:32:00.433Z,94871.09
2022-12-31T03:35:04.777Z,94869.16
2022-12-31T03:38:08.491Z,94871.53
2022-12-31T03:41:12.577Z,94869.53
2022-12-31T03:44:34.546Z,94864.50
2022-12-31T03:47:38.867Z,94853.91
2022-12-31T03:51:00.915Z,94866.63
2022-12-31T03:54:05.010Z,94858.84
2022-12-31T03:57:07.986Z,94856.31
2022-12-31T04:00:15.031Z,94857.69
2022-12-31T04:03:18.149Z,94854.34
2022-12-31T04:06:21.400Z,94862.00
2022-12-31T04:09:25.099Z,94867.50
2022-12-31T04:12:28.587Z,94857.78
2022-12-31T04:15:51.464Z,94861.41
2022-12-31T04:18:55.543Z,94855.38
2022-12-31T04:21:59.337Z,94854.50
2022-12-31T04:25:02.796Z,94856.28
2022-12-31T04:28:25.947Z,94850.78
2022-12-31T04:31:30.227Z,94848.97
2022-12-31T04:38:13.087Z,94843.25
2022-12-31T04:41:19.051Z,94839.56
2022-12-31T04:44:41.645Z,94831.56
2022-12-31T04:47:46.090Z,94840.03
2022-12-31T04:50:50.747Z,94838.03
2022-12-31T04:57:15.069Z,94840.78
2022-12-31T05:00:36.555Z,94833.19
2022-12-31T05:03:41.120Z,94834.34
2022-12-31T05:06:44.021Z,94837.03
2022-12-31T05:09:47.309Z,94832.78
2022-12-31T05:12:51.049Z,94834.50
2022-12-31T05:15:54.965Z,94820.84
2022-12-31T05:19:16.931Z,94831.19
2022-12-31T05:22:29.536Z,94817.34
2022-12-31T05:25:33.864Z,94821.72
2022-12-31T05:28:37.134Z,94817.44
2022-12-31T05:31:40.079Z,94824.19
2022-12-31T05:34:44.272Z,94819.31
2022-12-31T05:38:06.454Z,94812.84
2022-12-31T05:44:32.315Z,94815.31
2022-12-31T05:47:36.248Z,94820.38
2022-12-31T05:50:39.192Z,94818.09
2022-12-31T05:53:45.765Z,94816.44
2022-12-31T05:57:07.853Z,94820.31
2022-12-31T06:00:12.758Z,94821.88
2022-12-31T06:03:16.893Z,94819.72
2022-12-31T06:06:39.175Z,94830.00
2022-12-31T06:10:01.368Z,94826.31
2022-12-31T06:13:05.135Z,94826.09
2022-12-31T06:16:10.191Z,94833.34
2022-12-31T06:19:13.615Z,94829.00
2022-12-31T06:22:17.249Z,94816.13
2022-12-31T06:25:21.103Z,94827.41
2022-12-31T06:28:25.570Z,94838.16
2022-12-31T06:31:30.616Z,94839.50
2022-12-31T06:34:34.700Z,94848.38
2022-12-31T06:37:38.448Z,94845.00
2022-12-31T06:41:05.772Z,94847.09
2022-12-31T06:44:08.937Z,94840.69
2022-12-31T06:47:13.315Z,94843.94
2022-12-31T06:50:35.953Z,94846.41
2022-12-31T06:53:39.657Z,94853.94
2022-12-31T07:00:03.868Z,94864.75
2022-12-31T07:03:19.399Z,94866.41
2022-12-31T07:07:08.874Z,94874.50
2022-12-31T07:10:50.256Z,94871.50
2022-12-31T07:14:11.797Z,94881.78
2022-12-31T07:17:55.900Z,94879.97
2022-12-31T07:20:59.175Z,94878.81
2022-12-31T07:27:56.964Z,94875.97
2022-12-31T07:31:37.602Z,94866.50
2022-12-31T07:35:41.260Z,94873.00
2022-12-31T07:39:09.092Z,94879.56
2022-12-31T07:42:21.889Z,94890.31
2022-12-31T07:45:33.604Z,94899.13
2022-12-31T07:48:37.547Z,94883.84
2022-12-31T07:52:00.095Z,94883.84
2022-12-31T07:55:04.564Z,94885.56
2022-12-31T07:58:37.337Z,94889.63
2022-12-31T08:02:20.647Z,94898.41
2022-12-31T08:06:02.917Z,94891.50
2022-12-31T08:09:33.179Z,94898.28
2022-12-31T08:13:03.111Z,94903.81
2022-12-31T08:16:11.938Z,94900.41
2022-12-31T08:19:52.088Z,94902.94
2022-12-31T08:23:00.877Z,94910.72
2022-12-31T08:26:24.433Z,94917.00
2022-12-31T08:29:42.049Z,94912.78
2022-12-31T08:33:22.450Z,94918.59
2022-12-31T08:36:49.842Z,94919.59
2022-12-31T08:40:14.180Z,94916.88
2022-12-31T08:44:13.610Z,94931.13
2022-12-31T08:47:55.046Z,94932.88
2022-12-31T08:54:42.567Z,94930.16
2022-12-31T08:57:55.199Z,94933.69
2022-12-31T09:01:00.376Z,94937.69
2022-12-31T09:04:21.014Z,94932.19
2022-12-31T09:08:08.243Z,94936.19
2022-12-31T09:11:23.111Z,94937.19
2022-12-31T09:14:42.610Z,94935.41
2022-12-31T09:18:05.286Z,94927.44
2022-12-31T09:21:12.024Z,94929.66
2022-12-31T09:24:16.923Z,94946.13
2022-12-31T09:27:45.238Z,94948.34
2022-12-31T09:30:54.716Z,94944.34
2022-12-31T09:34:10.499Z,94951.34
2022-12-31T09:37:37.173Z,94948.31
2022-12-31T09:40:49.384Z,94947.78
2022-12-31T09:44:34.622Z,94937.78
2022-12-31T09:47:49.827Z,94942.50
2022-12-31T09:51:00.399Z,94950.81
2022-12-31T09:54:07.234Z,94958.00
2022-12-31T09:57:41.710Z,94955.41
2022-12-31T10:01:23.366Z,94952.84
2022-12-31T10:08:53.055Z,94968.59
2022-12-31T10:12:15.264Z,94962.69
2022-12-31T10:16:00.032Z,94974.50
2022-12-31T10:19:24.577Z,94977.75
2022-12-31T10:23:00.435Z,94977.97
2022-12-31T10:27:00.260Z,94973.75
2022-12-31T10:30:14.179Z,94973.25
2022-12-31T10:33:59.481Z,94974.78
2022-12-31T10:37:19.442Z,94970.50
2022-12-31T10:40:43.847Z,94984.34
2022-12-31T10:44:36.757Z,94985.31
2022-12-31T10:48:17.442Z,94982.25
2022-12-31T10:51:50.892Z,94981.28
2022-12-31T10:55:12.734Z,94987.19
2022-12-31T10:58:25.244Z,94989.09
2022-12-31T11:01:59.521Z,94980.75
2022-12-31T11:05:36.886Z,94977.69
2022-12-31T11:09:21.617Z,94971.97
2022-12-31T11:12:34.096Z,94972.09
2022-12-31T11:16:16.337Z,94968.09
2022-12-31T11:19:48.489Z,94978.97
2022-12-31T11:23:03.520Z,94986.03
2022-12-31T11:26:31.351Z,94987.13
2022-12-31T11:29:49.032Z,94987.00
2022-12-31T11:33:26.480Z,94997.13
2022-12-31T11:37:25.519Z,94993.06
2022-12-31T11:40:42.652Z,94994.72
2022-12-31T11:44:22.714Z,94986.53
2022-12-31T11:48:29.524Z,94987.59
2022-12-31T11:51:31.023Z,94992.81
2022-12-31T11:54:55.422Z,95003.88
2022-12-31T11:58:08.703Z,95006.16
2022-12-31T12:01:21.141Z,94999.13
2022-12-31T12:04:24.699Z,94993.00
2022-12-31T12:07:30.618Z,94988.03
2022-12-31T12:14:30.821Z,94995.38
2022-12-31T12:17:35.126Z,94991.84
2022-12-31T12:20:41.474Z,94992.03
2022-12-31T12:23:59.979Z,94997.22
2022-12-31T12:27:04.061Z,94995.25
2022-12-31T12:30:20.550Z,95002.53
2022-12-31T12:33:25.934Z,95001.78
2022-12-31T12:36:29.461Z,95004.56
2022-12-31T12:39:52.829Z,95015.50
2022-12-31T12:42:56.068Z,95009.75
2022-12-31T12:46:27.610Z,95011.75
2022-12-31T12:49:54.713Z,95022.84
2022-12-31T12:53:08.590Z,95028.81
2022-12-31T12:56:40.502Z,95031.66
2022-12-31T12:59:57.125Z,95027.47
2022-12-31T13:03:48.713Z,95036.13
2022-12-31T13:07:15.287Z,95026.19
2022-12-31T13:15:06.961Z,95046.22
2022-12-31T13:18:24.691Z,95037.69
2022-12-31T13:21:34.964Z,95038.91
2022-12-31T13:24:47.884Z,95034.31
2022-12-31T13:31:27.061Z,95036.91
2022-12-31T13:34:55.188Z,95042.88
2022-12-31T13:38:28.992Z,95040.16
2022-12-31T13:41:53.174Z,95040.75
2022-12-31T13:45:05.103Z,95048.06
2022-12-31T13:48:32.936Z,95050.31
2022-12-31T13:52:01.849Z,95049.66
2022-12-31T13:55:29.211Z,95058.22
2022-12-31T13:58:40.569Z,95059.59
2022-12-31T14:01:54.624Z,95065.75
2022-12-31T14:05:10.119Z,95065.75
2022-12-31T14:08:32.683Z,95069.66
2022-12-31T14:12:02.277Z,95074.09
2022-12-31T14:15:19.493Z,95068.84
2022-12-31T14:18:34.951Z,95070.19
2022-12-31T14:22:20.453Z,95076.34
2022-12-31T14:25:34.664Z,95072.06
2022-12-31T14:32:23.234Z,95064.31
2022-12-31T14:35:55.420Z,95058.91
2022-12-31T14:42:39.199Z,95072.41
2022-12-31T14:46:14.237Z,95056.09
2022-12-31T14:49:38.609Z,95051.75
2022-12-31T14:53:13.648Z,95048.00
2022-12-31T14:56:37.854Z,95063.66
2022-12-31T14:59:55.296Z,95073.47
2022-12-31T15:03:05.273Z,95066.69
2022-12-31T15:06:44.429Z,95075.81
2022-12-31T15:10:19.441Z,95068.59
2022-12-31T15:13:32.429Z,95083.72
2022-12-31T15:16:56.073Z,95084.25
2022-12-31T15:20:24.579Z,95088.47
2022-12-31T15:23:44.423Z,95094.84
2022-12-31T15:27:00.071Z,95101.63
2022-12-31T15:30:03.675Z,95091.97
2022-12-31T15:33:11.183Z,95088.19
2022-12-31T15:36:18.966Z,95094.34
2022-12-31T15:39:48.332Z,95095.94
2022-12-31T15:43:40.713Z,95097.22
2022-12-31T15:46:45.268Z,95099.13
2022-12-31T15:49:48.989Z,95100.88
2022-12-31T15:53:16.483Z,95095.66
2022-12-31T15:56:35.499Z,95099.81
2022-12-31T16:00:02.561Z,95102.84
2022-12-31T16:03:23.072Z,95104.50
2022-12-31T16:06:29.946Z,95106.91
2022-12-31T16:09:36.420Z,95105.09
2022-12-31T16:12:44.700Z,95112.72
2022-12-31T16:16:12.494Z,95115.03
2022-12-31T16:19:30.736Z,95118.03
2022-12-31T16:22:56.603Z,95113.75
2022-12-31T16:26:03.041Z,95124.66
2022-12-31T16:29:25.586Z,95130.91
2022-12-31T16:32:39.166Z,95125.78
2022-12-31T16:39:27.830Z,95134.09
2022-12-31T16:42:32.205Z,95130.53
2022-12-31T16:45:57.831Z,95136.19
2022-12-31T16:49:21.698Z,95152.28
2022-12-31T16:52:45.678Z,95148.38
2022-12-31T16:56:00.557Z,95149.66
2022-12-31T16:59:31.906Z,95149.59
2022-12-31T17:02:46.377Z,95152.13
2022-12-31T17:06:03.203Z,95153.50
2022-12-31T17:09:21.158Z,95149.69
2022-12-31T17:12:25.471Z,95154.31
2022-12-31T17:15:40.702Z,95153.25
2022-12-31T17:18:45.319Z,95155.81
2022-12-31T17:21:49.149Z,95151.19
2022-12-31T17:25:00.377Z,95146.06
2022-12-31T17:28:07.824Z,95144.09
2022-12-31T17:31:45.890Z,95153.78
2022-12-31T17:34:51.143Z,95157.44
2022-12-31T17:37:54.584Z,95150.22
2022-12-31T17:41:07.107Z,95159.66
2022-12-31T17:44:32.457Z,95165.50
2022-12-31T17:47:41.432Z,95175.94
2022-12-31T17:50:53.573Z,95174.34
2022-12-31T17:53:59.488Z,95179.66
2022-12-31T17:57:03.794Z,95185.25
2022-12-31T18:00:26.694Z,95181.81
2022-12-31T18:03:49.042Z,95185.38
2022-12-31T18:06:53.050Z,95187.44
2022-12-31T18:10:15.192Z,95200.47
2022-12-31T18:13:21.670Z,95194.19
2022-12-31T18:16:25.740Z,95203.78
2022-12-31T18:20:03.082Z,95201.06
2022-12-31T18:22:53.740Z,95202.41
2022-12-31T18:25:57.486Z,95207.78
2022-12-31T18:29:03.100Z,95219.28
2022-12-31T18:32:06.642Z,95219.41
2022-12-31T18:36:07.228Z,95224.13
2022-12-31T18:38:56.849Z,95224.63
2022-12-31T18:42:00.875Z,95225.97
2022-12-31T18:45:22.708Z,95222.50
2022-12-31T18:48:26.831Z,95229.56
2022-12-31T18:51:32.487Z,95223.75
2022-12-31T18:54:55.472Z,95219.75
2022-12-31T18:57:58.781Z,95225.56
2022-12-31T19:01:02.507Z,95229.44
2022-12-31T19:04:21.382Z,95237.72
2022-12-31T19:07:30.831Z,95245.16
2022-12-31T19:10:34.863Z,95247.31
2022-12-31T19:13:38.835Z,95248.94
2022-12-31T19:16:41.818Z,95250.28
2022-12-31T19:19:45.020Z,95244.59
2022-12-31T19:22:48.517Z,95245.81
2022-12-31T19:25:52.432Z,95244.50
2022-12-31T19:28:56.035Z,95240.38
2022-12-31T19:35:23.103Z,95236.31
2022-12-31T19:38:29.536Z,95236.63
2022-12-31T19:41:34.073Z,95237.50
2022-12-31T19:44:56.273Z,95250.00
2022-12-31T19:47:59.510Z,95241.38
2022-12-31T19:51:03.477Z,95246.22
2022-12-31T19:54:07.075Z,95245.47
2022-12-31T19:57:10.657Z,95246.44
2022-12-31T20:00:17.323Z,95251.72
2022-12-31T20:03:21.214Z,95249.66
2022-12-31T20:06:24.601Z,95257.09
2022-12-31T20:09:27.524Z,95250.09
2022-12-31T20:12:31.107Z,95249.25
2022-12-31T20:15:52.538Z,95255.59
2022-12-31T20:18:55.573Z,95256.03
2022-12-31T20:22:16.779Z,95262.91
2022-12-31T20:25:38.934Z,95259.16
2022-12-31T20:28:42.581Z,95265.72
2022-12-31T20:35:42.293Z,95260.53
2022-12-31T20:38:45.563Z,95266.69
2022-12-31T20:41:49.451Z,95263.91
2022-12-31T20:45:11.818Z,95272.84
2022-12-31T20:48:14.762Z,95268.09
2022-12-31T20:51:19.465Z,95271.00
2022-12-31T20:54:22.690Z,95254.50
2022-12-31T20:57:31.599Z,95261.91
2022-12-31T21:00:37.118Z,95259.88
2022-12-31T21:07:06.302Z,95260.75
2022-12-31T21:10:10.173Z,95259.22
2022-12-31T21:13:13.147Z,95267.09
2022-12-31T21:16:17.225Z,95260.81
2022-12-31T21:19:20.964Z,95262.34
2022-12-31T21:22:25.087Z,95259.75
2022-12-31T21:25:47.021Z,95256.91
2022-12-31T21:28:49.887Z,95263.03
2022-12-31T21:32:11.072Z,95276.84
2022-12-31T21:35:43.779Z,95268.09
2022-12-31T21:42:28.214Z,95269.78
2022-12-31T21:45:59.589Z,95278.50
2022-12-31T21:49:21.021Z,95272.59
2022-12-31T21:52:42.394Z,95273.34
2022-12-31T21:56:05.477Z,95271.50
2022-12-31T21:59:27.454Z,95276.84
2022-12-31T22:02:59.461Z,95270.00
2022-12-31T22:06:16.740Z,95272.25
2022-12-31T22:09:38.251Z,95282.31
2022-12-31T22:12:59.581Z,95278.31
2022-12-31T22:16:05.762Z,95281.81
2022-12-31T22:19:28.297Z,95283.81
2022-12-31T22:22:32.241Z,95288.00
2022-12-31T22:25:35.972Z,95284.00
2022-12-31T22:28:43.290Z,95294.09
2022-12-31T22:31:46.170Z,95297.56
2022-12-31T22:34:49.558Z,95299.56
2022-12-31T22:38:12.292Z,95314.59
2022-12-31T22:41:19.445Z,95324.66
2022-12-31T22:44:23.208Z,95321.16
2022-12-31T22:47:26.137Z,95328.81
2022-12-31T22:50:47.782Z,95330.38
2022-12-31T22:53:50.757Z,95320.94
2022-12-31T22:56:53.902Z,95338.63
2022-12-31T23:00:16.166Z,95342.09
2022-12-31T23:03:20.093Z,95343.28
2022-12-31T23:06:24.664Z,95346.41
2022-12-31T23:09:46.209Z,95346.91
2022-12-31T23:12:49.094Z,95346.44
2022-12-31T23:16:11.500Z,95351.84
2022-12-31T23:19:34.229Z,95341.91
2022-12-31T23:22:55.778Z,95349.38
2022-12-31T23:26:01.988Z,95356.59
2022-12-31T23:29:05.534Z,95364.31
2022-12-31T23:32:08.670Z,95362.03
2022-12-31T23:35:12.714Z,95368.56
2022-12-31T23:38:18.960Z,95359.41
2022-12-31T23:41:23.520Z,95370.00
2022-12-31T23:44:28.770Z,95367.00
2022-12-31T23:48:08.930Z,95371.34
2022-12-31T23:51:12.246Z,95372.56
2022-12-31T23:54:16.344Z,95382.25
